Air Navigation Services of Czech Republic  
Last data update:  18.04.2019 14:47:07 UTC Česká verze
   METEO Page displayed:  18.04.2019 14:47:57 UTC  
help
METAR EDDB 181420Z 07013KT 040V100 CAVOK 21/01 Q1029 TEMPO 08015G25KT=
METAR EDDC 181420Z 07014KT CAVOK 19/01 Q1028 TEMPO 07015G25KT=
METAR EDDE 181420Z 07013KT 040V110 CAVOK 19/03 Q1026 TEMPO 09015G25KT=
METAR EDDF 181420Z 09012KT 060V120 CAVOK 22/04 Q1022 NOSIG=
METAR EDDM 181420Z 10018KT CAVOK 19/02 Q1023 TEMPO 10015G25KT=
METAR EDDN 181420Z 10013KT CAVOK 20/01 Q1024 NOSIG=
METAR EDDP 181420Z 10018KT CAVOK 20/01 Q1028 TEMPO 10015G25KT=
METAR EDDT 181420Z 07010KT 020V130 CAVOK 21/M01 Q1029 TEMPO 09015G25KT=
METAR EDQM 181420Z 10013KT 060V130 CAVOK 17/M00 Q1026=
METAR EPBY 181430Z 06009KT 020V110 CAVOK 20/M01 Q1031=
METAR EPGD 181430Z 04013KT CAVOK 13/M01 Q1034=
METAR EPKK 181430Z 05012KT 9999 FEW064 17/02 Q1029=
METAR EPKT 181430Z 09010KT 040V130 CAVOK 18/00 Q1029=
METAR EPLL 181430Z 09005G15KT 040V150 CAVOK 19/M01 Q1030=
METAR EPPO 181430Z 13007KT 030V170 CAVOK 21/M01 Q1030=
METAR EPRZ 181430Z VRB03KT CAVOK 18/01 Q1029=
METAR EPWA 181430Z 02007KT 340V060 CAVOK 21/M02 Q1030 NOSIG=
METAR EPWR 181430Z 07009KT 040V110 CAVOK 20/01 Q1029=
METAR LHBP 181430Z 10008KT 060V160 CAVOK 20/03 Q1027 NOSIG=
METAR LHSM 181415Z 07007KT CAVOK 17/02 Q1027 NOSIG=
METAR LKBC 181430Z AUTO 09008KT 030V120 9999 FEW067 17/02 Q1025=
METAR LKCV 181400Z 09009KT 050V140 CAVOK 20/02 Q1027 NOSIG RMK BLU BLU=
METAR LKKB 181400Z 09010KT 050V130 CAVOK 19/01 Q1027 NOSIG RMK BLU BLU=
METAR LKKU 181400Z 04007KT CAVOK 20/02 Q1027=
METAR LKKV 181430Z 11016KT CAVOK 17/M02 Q1027 RMK REG QNH 1025=
METAR LKLN 181430Z AUTO 11012KT CAVOK 19/02 Q1026=
METAR LKMT 181430Z 05013KT CAVOK 18/03 Q1028 NOSIG RMK REG QNH 1025=
METAR LKNA 181400Z 10008KT 020V140 CAVOK 17/M01 Q1027 NOSIG RMK BLU BLU=
METAR LKPD 181400Z 10013KT CAVOK 20/01 Q1027 NOSIG RMK BLU BLU=
METAR LKPJ 181400Z AUTO 09006KT 010V130 CAVOK 19/01 Q1028=
METAR LKPR 181430Z 09011KT 050V120 CAVOK 19/01 Q1027 NOSIG RMK REG QNH 1025=
METAR LKTB 181430Z 07005KT 020V150 CAVOK 19/02 Q1027 NOSIG RMK REG QNH 1025=
METAR LKVO NIL
METAR LOWI 181420Z 12005KT 050V170 9999 FEW065 SCT080 BKN100 20/01 Q1021 NOSIG=
METAR LOWL 181420Z 11014KT 9999 FEW070 20/03 Q1025 NOSIG=
METAR LOWS 181420Z VRB08KT 9999 FEW060 21/02 Q1022 NOSIG=
METAR LOWW 181420Z 12008KT 070V160 CAVOK 19/04 Q1027 NOSIG=
METAR LZIB 181430Z 12007KT 090V170 CAVOK 19/05 Q1027 NOSIG=
SPECI LZKZ 181441Z 36010KT CAVOK 19/03 Q1027=
METAR LZMC 181400Z 11006KT CAVOK 20/M01 Q1028=
METAR LZPP 181430Z 28005KT 240V350 CAVOK 20/04 Q1027=
METAR LZSL 181430Z 13004KT 100V160 CAVOK 18/03 Q1027=
METAR LZTT 181430Z 07011KT 040V100 9999 FEW050 15/01 Q1028 NOSIG=
METAR LZZI 181430Z 07006KT 010V120 CAVOK 19/01 Q1027=